createdAt,value
2018-08-17T00:00:49.854Z,54.85
2018-08-17T00:03:18.056Z,54.33
2018-08-17T00:05:46.271Z,54.37
2018-08-17T00:08:14.638Z,54.40
2018-08-17T00:10:42.816Z,55.14
2018-08-17T00:13:10.995Z,55.36
2018-08-17T00:15:39.182Z,54.95
2018-08-17T00:18:07.455Z,55.69
2018-08-17T00:20:35.647Z,55.78
2018-08-17T00:23:03.822Z,55.55
2018-08-17T00:25:32.023Z,55.76
2018-08-17T00:28:00.227Z,55.65
2018-08-17T00:30:28.397Z,56.42
2018-08-17T00:32:56.571Z,56.42
2018-08-17T00:35:24.758Z,56.60
2018-08-17T00:37:52.998Z,56.75
2018-08-17T00:40:21.174Z,56.74
2018-08-17T00:42:49.355Z,56.60
2018-08-17T00:45:17.550Z,57.03
2018-08-17T00:47:45.734Z,57.25
2018-08-17T00:50:13.926Z,56.76
2018-08-17T00:52:42.118Z,57.34
2018-08-17T00:55:10.319Z,56.93
2018-08-17T00:57:38.522Z,57.09
2018-08-17T01:00:06.845Z,57.32
2018-08-17T01:02:35.017Z,56.98
2018-08-17T01:05:03.233Z,56.86
2018-08-17T01:07:31.407Z,57.23
2018-08-17T01:09:59.606Z,57.35
2018-08-17T01:12:27.787Z,57.39
2018-08-17T01:14:55.971Z,57.30
2018-08-17T01:17:24.155Z,57.14
2018-08-17T01:19:52.375Z,57.05
2018-08-17T01:22:20.552Z,57.53
2018-08-17T01:24:48.755Z,57.63
2018-08-17T01:27:16.943Z,57.17
2018-08-17T01:29:45.121Z,57.70
2018-08-17T01:32:13.350Z,57.77
2018-08-17T01:34:41.511Z,57.73
2018-08-17T01:37:09.675Z,57.85
2018-08-17T01:39:37.858Z,57.39
2018-08-17T01:42:06.074Z,57.89
2018-08-17T01:44:34.242Z,57.94
2018-08-17T01:47:02.420Z,57.85
2018-08-17T01:49:30.606Z,57.64
2018-08-17T01:51:58.779Z,58.34
2018-08-17T01:54:26.952Z,58.62
2018-08-17T01:56:55.560Z,58.24
2018-08-17T01:59:23.730Z,58.00
2018-08-17T02:01:51.906Z,58.28
2018-08-17T02:04:20.090Z,58.04
2018-08-17T02:06:48.266Z,58.35
2018-08-17T02:09:16.458Z,58.34
2018-08-17T02:11:44.647Z,58.59
2018-08-17T02:14:12.814Z,58.42
2018-08-17T02:16:41.311Z,58.40
2018-08-17T02:19:09.742Z,58.39
2018-08-17T02:21:37.940Z,58.04
2018-08-17T02:24:06.126Z,57.22
2018-08-17T02:26:34.300Z,57.32
2018-08-17T02:29:02.484Z,57.73
2018-08-17T02:31:30.674Z,57.66
2018-08-17T02:33:58.894Z,57.93
2018-08-17T02:36:27.098Z,57.83
2018-08-17T02:38:55.273Z,57.40
2018-08-17T02:41:23.462Z,57.57
2018-08-17T02:43:51.631Z,57.15
2018-08-17T02:46:19.818Z,57.93
2018-08-17T02:48:47.982Z,58.10
2018-08-17T02:51:16.185Z,58.26
2018-08-17T02:53:44.387Z,58.52
2018-08-17T02:56:12.555Z,59.17
2018-08-17T02:58:40.725Z,59.92
2018-08-17T03:01:08.887Z,60.46
2018-08-17T03:03:37.062Z,60.96
2018-08-17T03:06:05.330Z,61.61
2018-08-17T03:08:33.506Z,62.25
2018-08-17T03:11:01.668Z,62.38
2018-08-17T03:13:29.854Z,62.92
2018-08-17T03:15:58.014Z,63.84
2018-08-17T03:18:26.228Z,64.33
2018-08-17T03:20:54.428Z,64.04
2018-08-17T03:23:22.627Z,64.33
2018-08-17T03:25:50.843Z,64.45
2018-08-17T03:28:19.022Z,63.99
2018-08-17T03:30:47.200Z,64.03
2018-08-17T03:33:15.360Z,64.14
2018-08-17T03:35:43.578Z,64.15
2018-08-17T03:38:11.821Z,64.09
2018-08-17T03:40:39.998Z,64.30
2018-08-17T03:43:08.329Z,63.93
2018-08-17T03:45:36.502Z,63.97
2018-08-17T03:48:04.718Z,64.11
2018-08-17T03:50:32.925Z,64.18
2018-08-17T03:53:01.110Z,64.50
2018-08-17T03:55:29.299Z,64.12
2018-08-17T03:57:57.490Z,64.01
2018-08-17T04:00:25.670Z,64.25
2018-08-17T04:02:53.862Z,64.31
2018-08-17T04:05:22.082Z,64.80
2018-08-17T04:07:50.718Z,64.85
2018-08-17T04:10:18.911Z,64.71
2018-08-17T04:12:47.086Z,64.84
2018-08-17T04:15:15.270Z,64.67
2018-08-17T04:17:43.438Z,64.89
2018-08-17T04:20:11.650Z,64.75
2018-08-17T04:22:39.810Z,64.36
2018-08-17T04:25:08.036Z,64.04
2018-08-17T04:27:36.214Z,64.08
2018-08-17T04:30:04.864Z,63.56
2018-08-17T04:32:32.990Z,64.03
2018-08-17T04:35:01.175Z,64.21
2018-08-17T04:37:29.346Z,64.07
2018-08-17T04:39:57.523Z,64.33
2018-08-17T04:42:25.712Z,64.53
2018-08-17T04:44:53.897Z,64.81
2018-08-17T04:47:22.097Z,65.09
2018-08-17T04:49:50.275Z,63.94
2018-08-17T04:52:18.450Z,64.42
2018-08-17T04:54:46.669Z,64.55
2018-08-17T04:57:14.834Z,64.20
2018-08-17T04:59:43.028Z,63.97
2018-08-17T05:02:11.238Z,64.41
2018-08-17T05:04:39.426Z,64.36
2018-08-17T05:07:08.225Z,63.93
2018-08-17T05:09:36.411Z,64.40
2018-08-17T05:12:04.591Z,64.60
2018-08-17T05:14:32.776Z,64.74
2018-08-17T05:17:00.953Z,64.81
2018-08-17T05:19:29.132Z,64.45
2018-08-17T05:21:57.329Z,64.35
2018-08-17T05:24:25.507Z,64.62
2018-08-17T05:26:53.694Z,64.40
2018-08-17T05:29:21.876Z,64.05
2018-08-17T05:31:50.091Z,63.60
2018-08-17T05:34:18.267Z,63.33
2018-08-17T05:36:46.454Z,63.21
2018-08-17T05:39:14.691Z,62.34
2018-08-17T05:41:42.870Z,62.34
2018-08-17T05:44:11.066Z,61.76
2018-08-17T05:46:39.231Z,61.53
2018-08-17T05:49:07.419Z,61.68
2018-08-17T05:51:35.607Z,61.31
2018-08-17T05:54:03.994Z,61.14
2018-08-17T05:56:32.195Z,61.36
2018-08-17T05:59:00.356Z,60.90
2018-08-17T06:01:28.550Z,60.57
2018-08-17T06:03:56.716Z,60.54
2018-08-17T06:06:24.904Z,59.75
2018-08-17T06:08:53.115Z,60.35
2018-08-17T06:11:21.484Z,60.18
2018-08-17T06:13:49.475Z,61.24
2018-08-17T06:16:17.667Z,63.57
2018-08-17T06:18:45.847Z,64.77
2018-08-17T06:21:14.036Z,66.38
2018-08-17T06:23:42.411Z,68.51
2018-08-17T06:26:10.596Z,70.34
2018-08-17T06:28:38.790Z,72.41
2018-08-17T06:31:07.030Z,73.47
2018-08-17T06:33:35.222Z,76.23
2018-08-17T06:36:03.482Z,78.60
2018-08-17T06:38:31.619Z,78.82
2018-08-17T06:40:59.807Z,78.40
2018-08-17T06:43:28.086Z,77.86
2018-08-17T06:45:56.270Z,79.18
2018-08-17T06:48:24.459Z,79.23
2018-08-17T06:50:52.759Z,79.66
2018-08-17T06:53:20.839Z,79.82
2018-08-17T06:55:49.017Z,79.40
2018-08-17T06:58:17.187Z,79.41
2018-08-17T07:00:45.390Z,79.65
2018-08-17T07:03:13.567Z,80.10
2018-08-17T07:05:41.742Z,79.78
2018-08-17T07:08:09.915Z,78.44
2018-08-17T07:10:38.094Z,79.28
2018-08-17T07:13:06.302Z,79.38
2018-08-17T07:15:34.491Z,79.31
2018-08-17T07:18:02.669Z,78.74
2018-08-17T07:20:30.841Z,78.90
2018-08-17T07:22:59.042Z,79.35
2018-08-17T07:25:27.223Z,78.82
2018-08-17T07:27:55.424Z,79.08
2018-08-17T07:30:23.582Z,79.00
2018-08-17T07:32:51.776Z,79.16
2018-08-17T07:35:19.962Z,77.60
2018-08-17T07:37:48.148Z,78.57
2018-08-17T07:40:16.331Z,78.29
2018-08-17T07:42:44.522Z,78.51
2018-08-17T07:45:12.697Z,78.58
2018-08-17T07:47:40.907Z,78.85
2018-08-17T07:50:11.379Z,77.34
2018-08-17T07:52:39.563Z,77.56
2018-08-17T07:55:07.763Z,77.05
2018-08-17T07:57:35.954Z,76.09
2018-08-17T08:00:04.730Z,77.39
2018-08-17T08:02:32.939Z,78.69
2018-08-17T08:05:01.105Z,77.81
2018-08-17T08:07:29.316Z,78.20
2018-08-17T08:09:57.510Z,77.04
2018-08-17T08:12:25.671Z,76.90
2018-08-17T08:14:53.841Z,76.88
2018-08-17T08:17:22.054Z,76.56
2018-08-17T08:20:01.530Z,75.74
2018-08-17T08:22:29.718Z,75.61
2018-08-17T08:24:57.906Z,75.17
2018-08-17T08:27:26.066Z,75.08
2018-08-17T08:29:54.244Z,73.95
2018-08-17T08:32:22.473Z,74.13
2018-08-17T08:34:50.614Z,74.12
2018-08-17T08:37:20.322Z,72.95
2018-08-17T08:39:48.503Z,71.23
2018-08-17T08:42:16.655Z,71.93
2018-08-17T08:44:44.834Z,71.12
2018-08-17T08:47:13.049Z,70.37
2018-08-17T08:49:41.214Z,71.28
2018-08-17T08:52:09.387Z,71.03
2018-08-17T08:54:37.563Z,71.49
2018-08-17T08:57:06.206Z,71.63
2018-08-17T08:59:34.379Z,69.68
2018-08-17T09:02:02.554Z,68.91
2018-08-17T09:04:30.745Z,69.87
2018-08-17T09:06:59.003Z,68.92
2018-08-17T09:09:27.161Z,68.45
2018-08-17T09:11:55.328Z,69.08
2018-08-17T09:14:23.494Z,69.28
2018-08-17T09:16:51.650Z,68.21
2018-08-17T09:19:19.820Z,68.15
2018-08-17T09:21:48.000Z,69.15
2018-08-17T09:24:16.181Z,69.26
2018-08-17T09:26:44.387Z,68.82
2018-08-17T09:29:12.632Z,68.88
2018-08-17T09:31:40.744Z,68.87
2018-08-17T09:34:08.938Z,69.54
2018-08-17T09:36:37.105Z,69.16
2018-08-17T09:39:07.264Z,69.77
2018-08-17T09:41:35.499Z,69.73
2018-08-17T09:44:03.675Z,69.98
2018-08-17T09:46:31.848Z,69.47
2018-08-17T09:49:00.535Z,70.00
2018-08-17T09:51:28.784Z,69.30
2018-08-17T09:53:56.909Z,68.17
2018-08-17T09:56:25.089Z,67.85
2018-08-17T09:58:53.262Z,68.89
2018-08-17T10:01:26.909Z,67.14
2018-08-17T10:04:00.514Z,67.99
2018-08-17T10:06:34.031Z,68.44
2018-08-17T10:09:07.611Z,67.48
2018-08-17T10:11:35.784Z,68.15
2018-08-17T10:14:03.958Z,68.38
2018-08-17T10:16:32.134Z,68.23
2018-08-17T10:19:00.311Z,68.33
2018-08-17T10:21:29.683Z,67.17
2018-08-17T10:23:57.543Z,67.01
2018-08-17T10:26:25.707Z,66.73
2018-08-17T10:28:53.904Z,67.37
2018-08-17T10:31:22.067Z,68.37
2018-08-17T10:33:50.249Z,68.20
2018-08-17T10:36:18.410Z,67.67
2018-08-17T10:38:46.578Z,68.44
2018-08-17T10:41:14.782Z,69.21
2018-08-17T10:43:42.974Z,67.72
2018-08-17T10:46:11.145Z,65.98
2018-08-17T10:48:39.336Z,66.13
2018-08-17T10:51:07.481Z,64.33
2018-08-17T10:53:41.686Z,62.33
2018-08-17T10:56:09.866Z,60.94
2018-08-17T10:58:38.030Z,61.84
2018-08-17T11:01:06.250Z,62.07
2018-08-17T11:03:34.430Z,62.94
2018-08-17T11:06:02.621Z,61.97
2018-08-17T11:08:30.790Z,63.39
2018-08-17T11:10:59.001Z,62.29
2018-08-17T11:13:27.173Z,63.18
2018-08-17T11:15:55.309Z,64.32
2018-08-17T11:18:23.546Z,63.56
2018-08-17T11:20:53.572Z,63.87
2018-08-17T11:23:22.109Z,64.01
2018-08-17T11:25:50.305Z,64.35
2018-08-17T11:28:18.495Z,62.99
2018-08-17T11:30:46.661Z,62.71
2018-08-17T11:33:14.850Z,62.27
2018-08-17T11:35:43.019Z,62.11
2018-08-17T11:38:15.519Z,61.91
2018-08-17T11:40:43.710Z,60.99
2018-08-17T11:43:11.896Z,61.71
2018-08-17T11:45:45.258Z,60.38
2018-08-17T11:48:25.786Z,60.75
2018-08-17T11:50:54.263Z,60.36
2018-08-17T11:53:22.467Z,58.90
2018-08-17T11:55:50.680Z,56.84
2018-08-17T11:58:18.855Z,58.01
2018-08-17T12:00:47.054Z,57.29
2018-08-17T12:03:15.282Z,57.67
2018-08-17T12:05:43.475Z,57.72
2018-08-17T12:08:11.745Z,57.37
2018-08-17T12:10:39.864Z,59.36
2018-08-17T12:13:13.366Z,59.45
2018-08-17T12:15:48.726Z,57.60
2018-08-17T12:18:16.993Z,57.22
2018-08-17T12:20:45.179Z,55.84
2018-08-17T12:23:13.391Z,55.21
2018-08-17T12:25:47.079Z,54.93
2018-08-17T12:28:15.286Z,55.04
2018-08-17T12:30:43.464Z,54.27
2018-08-17T12:33:12.627Z,54.09
2018-08-17T12:35:41.002Z,54.75
2018-08-17T12:38:14.306Z,54.96
2018-08-17T12:40:47.895Z,55.59
2018-08-17T12:43:18.327Z,54.44
2018-08-17T12:45:46.702Z,55.99
2018-08-17T12:48:15.907Z,56.56
2018-08-17T12:50:44.590Z,56.93
2018-08-17T12:53:13.082Z,58.34
2018-08-17T12:55:41.320Z,57.81
2018-08-17T12:58:09.630Z,57.90
2018-08-17T13:00:37.998Z,58.26
2018-08-17T13:03:06.214Z,58.30
2018-08-17T13:05:34.370Z,57.81
2018-08-17T13:08:02.558Z,58.30
2018-08-17T13:10:30.718Z,56.71
2018-08-17T13:13:04.174Z,57.50
2018-08-17T13:15:32.351Z,58.33
2018-08-17T13:18:08.450Z,59.80
2018-08-17T13:20:36.641Z,60.40
2018-08-17T13:23:04.871Z,60.13
2018-08-17T13:25:33.023Z,59.97
2018-08-17T13:28:01.210Z,59.36
2018-08-17T13:30:29.390Z,59.99
2018-08-17T13:32:57.572Z,57.73
2018-08-17T13:35:25.815Z,58.70
2018-08-17T13:37:54.022Z,56.78
2018-08-17T13:40:22.191Z,57.03
2018-08-17T13:42:50.378Z,56.18
2018-08-17T13:45:18.560Z,55.76
2018-08-17T13:47:46.738Z,56.65
2018-08-17T13:50:14.926Z,56.62
2018-08-17T13:52:43.122Z,56.23
2018-08-17T13:55:11.295Z,54.63
2018-08-17T13:57:39.512Z,54.88
2018-08-17T14:00:09.455Z,52.63
2018-08-17T14:02:37.681Z,53.95
2018-08-17T14:05:06.694Z,55.25
2018-08-17T14:07:34.867Z,56.16
2018-08-17T14:10:03.176Z,55.29
2018-08-17T14:12:31.318Z,53.08
2018-08-17T14:14:59.615Z,53.55
2018-08-17T14:17:27.814Z,52.55
2018-08-17T14:19:56.032Z,52.77
2018-08-17T14:22:24.328Z,53.21
2018-08-17T14:24:52.421Z,53.92
2018-08-17T14:27:20.606Z,53.12
2018-08-17T14:29:48.787Z,53.05
2018-08-17T14:32:16.971Z,52.99
2018-08-17T14:34:45.154Z,53.29
2018-08-17T14:37:13.322Z,51.79
2018-08-17T14:39:41.517Z,51.29
2018-08-17T14:42:09.719Z,50.92
2018-08-17T14:44:37.891Z,51.29
2018-08-17T14:47:06.118Z,50.59
2018-08-17T14:49:34.363Z,51.58
2018-08-17T14:52:02.815Z,52.20
2018-08-17T14:54:30.979Z,52.00
2018-08-17T14:56:59.164Z,52.34
2018-08-17T14:59:27.334Z,51.95
2018-08-17T15:01:55.502Z,52.69
2018-08-17T15:04:23.670Z,53.06
2018-08-17T15:06:51.859Z,51.65
2018-08-17T15:09:20.033Z,51.58
2018-08-17T15:11:48.212Z,51.10
2018-08-17T15:14:16.406Z,51.16
2018-08-17T15:16:44.615Z,51.03
2018-08-17T15:19:12.819Z,50.37
2018-08-17T15:21:41.443Z,49.63
2018-08-17T15:24:10.231Z,49.32
2018-08-17T15:26:38.471Z,49.10
2018-08-17T15:29:06.628Z,48.87
2018-08-17T15:31:35.243Z,47.79
2018-08-17T15:34:03.456Z,47.29
2018-08-17T15:36:31.666Z,47.28
2018-08-17T15:38:59.864Z,46.95
2018-08-17T15:41:28.158Z,47.22
2018-08-17T15:43:56.282Z,47.05
2018-08-17T15:46:24.512Z,46.53
2018-08-17T15:48:54.230Z,46.73
2018-08-17T15:51:22.421Z,46.95
2018-08-17T15:53:50.889Z,46.12
2018-08-17T15:56:19.150Z,46.55
2018-08-17T15:58:47.410Z,46.48
2018-08-17T16:01:15.612Z,45.73
2018-08-17T16:03:43.803Z,45.68
2018-08-17T16:06:12.011Z,45.45
2018-08-17T16:08:40.310Z,44.53
2018-08-17T16:11:09.020Z,45.32
2018-08-17T16:13:37.175Z,44.17
2018-08-17T16:16:05.675Z,45.50
2018-08-17T16:18:34.154Z,45.31
2018-08-17T16:21:02.347Z,45.69
2018-08-17T16:23:30.538Z,45.36
2018-08-17T16:25:58.736Z,46.01
2018-08-17T16:28:26.912Z,45.81
2018-08-17T16:30:55.103Z,46.35
2018-08-17T16:33:23.277Z,46.07
2018-08-17T16:35:51.455Z,46.74
2018-08-17T16:38:19.634Z,46.21
2018-08-17T16:40:50.526Z,45.92
2018-08-17T16:43:23.474Z,46.25
2018-08-17T16:45:51.718Z,46.00
2018-08-17T16:48:20.250Z,45.48
2018-08-17T16:50:48.458Z,45.99
2018-08-17T16:53:16.646Z,45.71
2018-08-17T16:55:44.810Z,45.89
2018-08-17T16:58:12.977Z,46.28
2018-08-17T17:00:41.234Z,45.99
2018-08-17T17:03:09.342Z,45.77
2018-08-17T17:05:37.506Z,46.41
2018-08-17T17:08:05.772Z,45.54
2018-08-17T17:10:33.974Z,45.46
2018-08-17T17:13:02.162Z,44.91
2018-08-17T17:15:30.328Z,45.62
2018-08-17T17:18:03.850Z,45.78
2018-08-17T17:20:34.555Z,45.94
2018-08-17T17:23:03.430Z,46.03
2018-08-17T17:25:31.609Z,46.59
2018-08-17T17:27:59.774Z,47.01
2018-08-17T17:30:43.136Z,46.77
2018-08-17T17:33:11.639Z,46.94
2018-08-17T17:35:41.862Z,47.39
2018-08-17T17:38:10.452Z,48.15
2018-08-17T17:40:38.935Z,48.27
2018-08-17T17:43:07.415Z,48.41
2018-08-17T17:45:36.064Z,48.34
2018-08-17T17:48:04.286Z,47.46
2018-08-17T17:50:32.493Z,47.68
2018-08-17T17:53:01.846Z,49.03
2018-08-17T17:55:41.089Z,47.92
2018-08-17T17:58:09.692Z,49.64
2018-08-17T18:00:37.860Z,48.33
2018-08-17T18:03:06.270Z,48.67
2018-08-17T18:05:34.438Z,48.35
2018-08-17T18:08:07.715Z,48.35
2018-08-17T18:10:35.894Z,49.47
2018-08-17T18:13:04.090Z,50.24
2018-08-17T18:15:32.238Z,50.74
2018-08-17T18:18:00.427Z,51.59
2018-08-17T18:20:28.595Z,52.10
2018-08-17T18:22:56.779Z,51.34
2018-08-17T18:25:24.969Z,50.80
2018-08-17T18:27:53.164Z,51.05
2018-08-17T18:30:21.322Z,51.80
2018-08-17T18:32:49.500Z,52.21
2018-08-17T18:35:17.797Z,52.94
2018-08-17T18:37:45.870Z,53.33
2018-08-17T18:40:14.080Z,53.97
2018-08-17T18:42:42.246Z,53.71
2018-08-17T18:45:10.442Z,54.15
2018-08-17T18:47:38.619Z,54.33
2018-08-17T18:50:07.430Z,54.76
2018-08-17T18:52:35.641Z,54.93
2018-08-17T18:55:04.087Z,54.76
2018-08-17T18:57:32.173Z,54.25
2018-08-17T19:00:00.471Z,54.73
2018-08-17T19:02:28.652Z,54.94
2018-08-17T19:04:56.834Z,55.77
2018-08-17T19:07:25.022Z,56.08
2018-08-17T19:09:53.220Z,56.30
2018-08-17T19:12:21.387Z,56.63
2018-08-17T19:14:50.739Z,56.58
2018-08-17T19:17:34.558Z,57.07
2018-08-17T19:20:02.769Z,57.45
2018-08-17T19:22:38.126Z,58.02
2018-08-17T19:25:07.396Z,57.85
2018-08-17T19:27:36.728Z,58.11
2018-08-17T19:30:08.872Z,58.45
2018-08-17T19:32:37.043Z,59.38
2018-08-17T19:35:05.234Z,59.75
2018-08-17T19:37:33.906Z,59.70
2018-08-17T19:40:02.149Z,59.87
2018-08-17T19:42:30.350Z,60.23
2018-08-17T19:44:58.549Z,60.53
2018-08-17T19:47:26.731Z,60.81
2018-08-17T19:49:54.909Z,60.97
2018-08-17T19:52:23.074Z,61.17
2018-08-17T19:54:51.243Z,61.30
2018-08-17T19:57:19.428Z,61.76
2018-08-17T19:59:47.606Z,61.41
2018-08-17T20:02:15.789Z,61.77
2018-08-17T20:04:43.962Z,61.77
2018-08-17T20:07:12.158Z,61.74
2018-08-17T20:09:40.329Z,62.25
2018-08-17T20:12:08.542Z,62.68
2018-08-17T20:14:36.718Z,62.44
2018-08-17T20:17:04.906Z,62.75
2018-08-17T20:19:38.446Z,63.09
2018-08-17T20:22:18.901Z,62.82
2018-08-17T20:24:47.346Z,63.33
2018-08-17T20:27:15.922Z,63.23
2018-08-17T20:29:44.308Z,63.38
2018-08-17T20:32:12.503Z,63.52
2018-08-17T20:34:43.822Z,63.34
2018-08-17T20:37:13.138Z,63.61
2018-08-17T20:39:42.646Z,62.77
2018-08-17T20:42:11.418Z,63.11
2018-08-17T20:44:39.632Z,63.60
2018-08-17T20:47:08.338Z,63.27
2018-08-17T20:49:36.554Z,63.06
2018-08-17T20:52:05.047Z,63.55
2018-08-17T20:54:33.527Z,62.86
2018-08-17T20:57:02.048Z,63.45
2018-08-17T20:59:30.380Z,63.50
2018-08-17T21:01:59.175Z,63.31
2018-08-17T21:04:27.359Z,63.25
2018-08-17T21:06:55.534Z,63.37
2018-08-17T21:09:23.718Z,63.47
2018-08-17T21:11:51.902Z,63.92
2018-08-17T21:14:20.103Z,63.66
2018-08-17T21:16:48.288Z,64.14
2018-08-17T21:19:16.527Z,63.61
2018-08-17T21:21:44.751Z,63.96
2018-08-17T21:24:12.899Z,64.14
2018-08-17T21:26:41.095Z,63.89
2018-08-17T21:29:09.343Z,64.32
2018-08-17T21:31:37.459Z,64.09
2018-08-17T21:34:05.681Z,64.17
2018-08-17T21:36:33.871Z,64.34
2018-08-17T21:39:17.956Z,64.45
2018-08-17T21:41:47.405Z,64.54
2018-08-17T21:44:16.870Z,64.92
2018-08-17T21:46:51.357Z,65.10
2018-08-17T21:49:20.083Z,65.26
2018-08-17T21:51:48.258Z,65.00
2018-08-17T21:54:18.090Z,65.37
2018-08-17T21:56:46.341Z,65.26
2018-08-17T21:59:14.514Z,65.27
2018-08-17T22:01:42.736Z,65.41
2018-08-17T22:04:10.933Z,65.43
2018-08-17T22:06:39.119Z,65.26
2018-08-17T22:09:08.644Z,65.28
2018-08-17T22:11:37.134Z,65.18
2018-08-17T22:14:05.774Z,65.43
2018-08-17T22:16:33.974Z,65.42
2018-08-17T22:19:02.224Z,65.36
2018-08-17T22:21:30.440Z,65.27
2018-08-17T22:23:58.836Z,65.31
2018-08-17T22:26:26.971Z,65.58
2018-08-17T22:28:55.271Z,65.80
2018-08-17T22:31:35.865Z,65.79
2018-08-17T22:34:04.211Z,65.96
2018-08-17T22:36:32.395Z,66.08
2018-08-17T22:39:00.594Z,66.20
2018-08-17T22:41:28.834Z,66.12
2018-08-17T22:43:57.656Z,65.95
2018-08-17T22:46:25.847Z,66.12
2018-08-17T22:48:54.323Z,66.24
2018-08-17T22:51:22.444Z,66.17
2018-08-17T22:53:50.634Z,66.39
2018-08-17T22:56:18.835Z,66.65
2018-08-17T22:58:49.956Z,66.60
2018-08-17T23:01:19.806Z,66.45
2018-08-17T23:03:54.690Z,66.53
2018-08-17T23:06:24.392Z,66.45
2018-08-17T23:08:52.602Z,66.27
2018-08-17T23:11:28.818Z,66.22
2018-08-17T23:13:59.279Z,66.33
2018-08-17T23:16:27.467Z,66.15
2018-08-17T23:18:55.657Z,66.43
2018-08-17T23:21:23.858Z,66.53
2018-08-17T23:23:52.068Z,66.53
2018-08-17T23:26:20.243Z,66.85
2018-08-17T23:28:48.415Z,66.83
2018-08-17T23:31:16.614Z,66.99
2018-08-17T23:33:44.786Z,67.32
2018-08-17T23:36:12.967Z,67.54
2018-08-17T23:38:41.162Z,67.49
2018-08-17T23:41:09.353Z,67.74
2018-08-17T23:43:37.539Z,68.01
2018-08-17T23:46:05.839Z,68.39
2018-08-17T23:48:34.018Z,68.44
2018-08-17T23:51:02.202Z,68.16
2018-08-17T23:53:30.435Z,67.71
2018-08-17T23:55:58.614Z,67.84
2018-08-17T23:58:26.811Z,67.92
